KMOD/MOD METAR and TAF weather

Enter ICAO airport designator
Station Type Date Time Source
KMOD METAR 2019/02/22 23:53 UTC NOAA

KMOD 222353Z 30004KT 10SM CLR 12/M04 A3011 RMK AO2 SLP196 T01221044 10122 20072 53002


Station Type Date Time Source
KMOD Decoded METAR 2019/02/22 23:53 UTC NOAA

MODESTO CITY CO SHAM FLD, CA, United States (KMOD) 37-37N 120-57W 29M
Feb 22, 2019 - 06:53 PM EST / 2019.02.22 2353 UTC
Wind: from the WNW (300 degrees) at 5 MPH (4 KT):0
Visibility: 10 mile(s):0
Sky conditions: clear
Temperature: 54.0 F (12.2 C)
Dew Point: 24.1 F (-4.4 C)
Relative Humidity: 31%
Pressure (altimeter): 30.11 in. Hg (1019 hPa)
Pressure tendency: 0.01 inches (0.2 hPa) higher than three hours ago
ob: KMOD 222353Z 30004KT 10SM CLR 12/M04 A3011 RMK AO2 SLP196 T01221044 10122 20072 53002
cycle: 0

Station Type Date Time Source
KMOD TAF 2019/02/22 18:27 UTC NOAA

TAF KMOD 221723Z 2218/2318 30010KT P6SM SKC
FM230400 13003KT P6SM SKC
FM231500 12002KT P6SM SCT250


Example: see airport list